sensor_id;sensor_type;location;lat;lon;timestamp;P1;durP1;ratioP1;P2;durP2;ratioP2
73132;SDS011;61320;52.008;4.530;2023-02-03T21:42:37;12.42;;;8.56;;
73132;SDS011;61320;52.008;4.530;2023-02-03T21:45:20;13.63;;;9.02;;
73132;SDS011;61320;52.008;4.530;2023-02-03T21:47:50;13.34;;;8.70;;
73132;SDS011;61320;52.008;4.530;2023-02-03T21:50:30;14.94;;;9.54;;
73132;SDS011;61320;52.008;4.530;2023-02-03T21:53:14;14.64;;;9.27;;
73132;SDS011;61320;52.008;4.530;2023-02-03T21:55:49;15.00;;;9.50;;
73132;SDS011;61320;52.008;4.530;2023-02-03T22:00:59;13.81;;;8.84;;
73132;SDS011;61320;52.008;4.530;2023-02-03T22:03:39;13.78;;;8.84;;
73132;SDS011;61320;52.008;4.530;2023-02-03T22:06:27;13.58;;;8.76;;
73132;SDS011;61320;52.008;4.530;2023-02-03T22:09:04;14.17;;;9.00;;
73132;SDS011;61320;52.008;4.530;2023-02-03T22:11:32;14.53;;;9.22;;
73132;SDS011;61320;52.008;4.530;2023-02-03T22:14:00;14.70;;;9.34;;
73132;SDS011;61320;52.008;4.530;2023-02-03T22:16:25;15.66;;;9.92;;
73132;SDS011;61320;52.008;4.530;2023-02-03T22:18:53;15.67;;;9.98;;
73132;SDS011;61320;52.008;4.530;2023-02-03T22:21:23;14.72;;;9.29;;
73132;SDS011;61320;52.008;4.530;2023-02-03T22:23:49;14.58;;;9.15;;
73132;SDS011;61320;52.008;4.530;2023-02-03T22:26:15;14.96;;;9.29;;
73132;SDS011;61320;52.008;4.530;2023-02-03T22:28:41;15.37;;;9.64;;
73132;SDS011;61320;52.008;4.530;2023-02-03T22:31:08;15.60;;;9.64;;
73132;SDS011;61320;52.008;4.530;2023-02-03T22:33:35;15.95;;;9.89;;
73132;SDS011;61320;52.008;4.530;2023-02-03T22:36:02;15.53;;;9.54;;
73132;SDS011;61320;52.008;4.530;2023-02-03T22:38:28;16.71;;;10.22;;
73132;SDS011;61320;52.008;4.530;2023-02-03T22:40:54;15.52;;;9.75;;
73132;SDS011;61320;52.008;4.530;2023-02-03T22:43:20;14.23;;;9.04;;
73132;SDS011;61320;52.008;4.530;2023-02-03T22:45:45;14.64;;;9.33;;
73132;SDS011;61320;52.008;4.530;2023-02-03T22:48:11;14.62;;;9.25;;
73132;SDS011;61320;52.008;4.530;2023-02-03T22:50:37;16.08;;;9.99;;
73132;SDS011;61320;52.008;4.530;2023-02-03T22:53:03;16.04;;;9.88;;
73132;SDS011;61320;52.008;4.530;2023-02-03T22:55:30;16.78;;;10.35;;
73132;SDS011;61320;52.008;4.530;2023-02-03T22:57:56;14.69;;;9.16;;
73132;SDS011;61320;52.008;4.530;2023-02-03T23:00:22;14.33;;;8.99;;
73132;SDS011;61320;52.008;4.530;2023-02-03T23:02:49;13.01;;;8.33;;
73132;SDS011;61320;52.008;4.530;2023-02-03T23:05:15;14.16;;;8.94;;
73132;SDS011;61320;52.008;4.530;2023-02-03T23:07:42;15.08;;;9.47;;
73132;SDS011;61320;52.008;4.530;2023-02-03T23:10:10;14.57;;;9.04;;
73132;SDS011;61320;52.008;4.530;2023-02-03T23:12:37;15.31;;;9.60;;
73132;SDS011;61320;52.008;4.530;2023-02-03T23:15:03;15.04;;;9.36;;
73132;SDS011;61320;52.008;4.530;2023-02-03T23:17:29;14.91;;;9.46;;
73132;SDS011;61320;52.008;4.530;2023-02-03T23:19:55;14.50;;;9.37;;
73132;SDS011;61320;52.008;4.530;2023-02-03T23:22:20;14.28;;;9.28;;
73132;SDS011;61320;52.008;4.530;2023-02-03T23:24:46;13.87;;;8.94;;
73132;SDS011;61320;52.008;4.530;2023-02-03T23:27:11;14.04;;;8.97;;
73132;SDS011;61320;52.008;4.530;2023-02-03T23:29:37;12.63;;;8.26;;
73132;SDS011;61320;52.008;4.530;2023-02-03T23:32:06;13.36;;;8.71;;
73132;SDS011;61320;52.008;4.530;2023-02-03T23:34:32;13.29;;;8.73;;
73132;SDS011;61320;52.008;4.530;2023-02-03T23:37:17;13.31;;;8.82;;
73132;SDS011;61320;52.008;4.530;2023-02-03T23:39:43;13.21;;;8.83;;
73132;SDS011;61320;52.008;4.530;2023-02-03T23:42:09;13.40;;;8.94;;
73132;SDS011;61320;52.008;4.530;2023-02-03T23:44:34;12.80;;;8.64;;
73132;SDS011;61320;52.008;4.530;2023-02-03T23:47:00;13.76;;;9.31;;
73132;SDS011;61320;52.008;4.530;2023-02-03T23:49:25;14.72;;;9.76;;
73132;SDS011;61320;52.008;4.530;2023-02-03T23:51:51;14.86;;;9.68;;
73132;SDS011;61320;52.008;4.530;2023-02-03T23:54:16;13.09;;;8.54;;
73132;SDS011;61320;52.008;4.530;2023-02-03T23:56:42;15.19;;;9.60;;
73132;SDS011;61320;52.008;4.530;2023-02-03T23:59:07;15.05;;;9.59;;
